createdAt,value
2022-10-25T00:01:45.313Z,1.67
2022-10-25T00:04:14.241Z,1.88
2022-10-25T00:06:42.637Z,1.55
2022-10-25T00:09:11.692Z,2.00
2022-10-25T00:11:39.962Z,1.70
2022-10-25T00:14:09.893Z,1.65
2022-10-25T00:16:39.847Z,1.85
2022-10-25T00:19:08.402Z,1.90
2022-10-25T00:21:37.198Z,2.08
2022-10-25T00:24:06.369Z,1.80
2022-10-25T00:26:35.951Z,2.10
2022-10-25T00:29:04.374Z,1.50
2022-10-25T00:31:33.954Z,2.15
2022-10-25T00:34:02.228Z,2.17
2022-10-25T00:36:30.552Z,2.97
2022-10-25T00:39:00.059Z,2.80
2022-10-25T00:41:30.140Z,2.15
2022-10-25T00:44:36.721Z,2.88
2022-10-25T00:47:14.455Z,1.60
2022-10-25T00:49:44.309Z,2.13
2022-10-25T00:52:13.090Z,2.28
2022-10-25T00:54:46.440Z,1.90
2022-10-25T00:57:18.621Z,1.70
2022-10-25T00:59:48.186Z,1.98
2022-10-25T01:02:19.302Z,1.58
2022-10-25T01:04:47.833Z,2.00
2022-10-25T01:07:16.386Z,2.15
2022-10-25T01:09:45.281Z,2.10
2022-10-25T01:12:13.432Z,2.42
2022-10-25T01:14:47.571Z,1.75
2022-10-25T01:17:24.096Z,2.05
2022-10-25T01:20:12.958Z,2.15
2022-10-25T01:22:48.122Z,1.90
2022-10-25T01:25:49.173Z,1.85
2022-10-25T01:28:27.529Z,1.92
2022-10-25T01:31:13.073Z,2.50
2022-10-25T01:33:45.815Z,1.60
2022-10-25T01:36:20.265Z,3.45
2022-10-25T01:38:55.629Z,1.50
2022-10-25T01:41:29.334Z,1.42
2022-10-25T01:44:07.843Z,2.13
2022-10-25T01:46:46.371Z,1.60
2022-10-25T01:49:19.331Z,2.42
2022-10-25T01:51:48.120Z,2.00
2022-10-25T01:54:22.007Z,2.03
2022-10-25T01:57:09.479Z,1.98
2022-10-25T01:59:58.713Z,1.60
2022-10-25T02:02:34.273Z,2.17
2022-10-25T02:05:12.001Z,1.50
2022-10-25T02:07:43.688Z,1.90
2022-10-25T02:10:17.847Z,1.63
2022-10-25T02:12:53.829Z,1.85
2022-10-25T02:15:35.806Z,1.55
2022-10-25T02:18:09.422Z,1.73
2022-10-25T02:20:40.776Z,1.73
2022-10-25T02:23:11.978Z,1.65
2022-10-25T02:25:42.869Z,1.58
2022-10-25T02:28:13.653Z,2.05
2022-10-25T02:30:45.496Z,2.05
2022-10-25T02:33:15.315Z,2.00
2022-10-25T02:35:44.863Z,1.85
2022-10-25T02:38:13.162Z,1.90
2022-10-25T02:40:41.374Z,1.70
2022-10-25T02:43:10.063Z,1.88
2022-10-25T02:45:38.695Z,2.33
2022-10-25T02:48:07.947Z,2.30
2022-10-25T02:50:37.532Z,1.58
2022-10-25T02:53:06.111Z,2.53
2022-10-25T02:55:34.695Z,2.45
2022-10-25T02:58:02.897Z,2.00
2022-10-25T03:00:31.192Z,1.80
2022-10-25T03:02:59.864Z,1.73
2022-10-25T03:05:28.088Z,1.83
2022-10-25T03:07:57.762Z,1.70
2022-10-25T03:10:26.181Z,1.85
2022-10-25T03:12:55.009Z,2.20
2022-10-25T03:15:24.144Z,2.10
2022-10-25T03:17:52.439Z,1.60
2022-10-25T03:20:21.872Z,1.65
2022-10-25T03:22:51.060Z,1.90
2022-10-25T03:25:21.232Z,1.63
2022-10-25T03:27:49.618Z,1.42
2022-10-25T03:30:18.307Z,1.67
2022-10-25T03:32:47.610Z,1.90
2022-10-25T03:35:16.415Z,1.58
2022-10-25T03:37:45.089Z,1.95
2022-10-25T03:40:13.872Z,1.70
2022-10-25T03:42:43.679Z,1.50
2022-10-25T03:45:13.426Z,2.00
2022-10-25T03:47:41.828Z,1.58
2022-10-25T03:50:10.213Z,1.63
2022-10-25T03:52:38.638Z,1.67
2022-10-25T03:55:07.688Z,2.58
2022-10-25T03:57:36.013Z,1.67
2022-10-25T04:00:07.139Z,2.25
2022-10-25T04:02:35.498Z,2.13
2022-10-25T04:05:04.077Z,1.95
2022-10-25T04:07:32.902Z,2.10
2022-10-25T04:10:01.687Z,1.83
2022-10-25T04:12:29.954Z,1.75
2022-10-25T04:14:58.234Z,2.60
2022-10-25T04:17:27.838Z,1.70
2022-10-25T04:19:56.011Z,1.20
2022-10-25T04:22:24.609Z,1.65
2022-10-25T04:24:52.949Z,1.65
2022-10-25T04:27:21.122Z,1.50
2022-10-25T04:29:51.088Z,1.42
2022-10-25T04:34:54.639Z,1.60
2022-10-25T04:37:23.203Z,1.90
2022-10-25T04:39:51.455Z,1.70
2022-10-25T04:42:20.222Z,1.90
2022-10-25T04:44:48.528Z,2.17
2022-10-25T04:47:17.416Z,2.20
2022-10-25T04:49:45.669Z,1.77
2022-10-25T04:52:15.282Z,1.48
2022-10-25T04:54:43.449Z,1.85
2022-10-25T04:57:11.855Z,2.05
2022-10-25T04:59:40.108Z,1.92
2022-10-25T05:02:08.721Z,1.80
2022-10-25T05:04:45.403Z,2.00
2022-10-25T05:07:24.416Z,2.10
2022-10-25T05:09:53.072Z,2.13
2022-10-25T05:12:21.538Z,2.50
2022-10-25T05:14:49.804Z,2.30
2022-10-25T05:17:18.886Z,2.05
2022-10-25T05:19:47.483Z,2.22
2022-10-25T05:22:16.324Z,2.35
2022-10-25T05:24:45.909Z,2.15
2022-10-25T05:27:14.203Z,2.67
2022-10-25T05:29:43.285Z,2.00
2022-10-25T05:32:11.531Z,2.38
2022-10-25T05:34:39.848Z,2.03
2022-10-25T05:37:08.047Z,2.97
2022-10-25T05:39:38.355Z,2.63
2022-10-25T05:42:09.332Z,2.58
2022-10-25T05:44:38.078Z,2.15
2022-10-25T05:47:06.841Z,3.47
2022-10-25T05:49:39.654Z,2.20
2022-10-25T05:52:07.973Z,2.70
2022-10-25T05:54:36.524Z,2.50
2022-10-25T05:57:09.650Z,3.45
2022-10-25T05:59:39.802Z,2.20
2022-10-25T06:02:12.374Z,1.95
2022-10-25T06:04:40.716Z,3.10
2022-10-25T06:07:11.375Z,2.40
2022-10-25T06:09:39.625Z,2.20
2022-10-25T06:12:09.771Z,3.22
2022-10-25T06:14:38.405Z,2.60
2022-10-25T06:17:06.790Z,2.60
2022-10-25T06:19:35.045Z,2.08
2022-10-25T06:22:03.722Z,2.38
2022-10-25T06:24:32.710Z,2.78
2022-10-25T06:27:00.953Z,2.40
2022-10-25T06:29:30.810Z,2.42
2022-10-25T06:31:59.080Z,2.40
2022-10-25T06:34:27.295Z,2.50
2022-10-25T06:36:57.882Z,2.55
2022-10-25T06:39:26.229Z,2.80
2022-10-25T06:41:54.875Z,2.38
2022-10-25T06:44:26.112Z,2.13
2022-10-25T06:47:16.440Z,1.90
2022-10-25T06:49:44.496Z,2.45
2022-10-25T06:52:13.296Z,2.17
2022-10-25T06:54:41.891Z,2.35
2022-10-25T06:57:10.316Z,2.03
2022-10-25T06:59:39.125Z,2.78
2022-10-25T07:02:10.944Z,1.90
2022-10-25T07:04:39.249Z,2.25
2022-10-25T07:07:07.500Z,2.42
2022-10-25T07:09:36.172Z,1.95
2022-10-25T07:12:08.724Z,2.20
2022-10-25T07:14:40.407Z,2.05
2022-10-25T07:17:10.317Z,1.92
2022-10-25T07:19:38.620Z,2.20
2022-10-25T07:22:07.637Z,2.10
2022-10-25T07:24:35.821Z,2.10
2022-10-25T07:27:04.084Z,2.30
2022-10-25T07:29:35.657Z,1.65
2022-10-25T07:32:03.915Z,2.20
2022-10-25T07:34:33.763Z,2.50
2022-10-25T07:37:01.966Z,2.72
2022-10-25T07:39:30.338Z,2.58
2022-10-25T07:41:58.639Z,2.22
2022-10-25T07:44:27.343Z,2.50
2022-10-25T07:46:55.650Z,2.42
2022-10-25T07:49:23.835Z,2.13
2022-10-25T07:51:55.722Z,2.13
2022-10-25T07:54:24.021Z,2.20
2022-10-25T07:56:54.270Z,3.17
2022-10-25T07:59:22.578Z,2.78
2022-10-25T08:01:52.537Z,2.30
2022-10-25T08:04:21.098Z,2.63
2022-10-25T08:06:49.358Z,2.00
2022-10-25T08:09:37.468Z,2.60
2022-10-25T08:12:06.512Z,2.97
2022-10-25T08:14:37.901Z,2.80
2022-10-25T08:17:09.690Z,2.35
2022-10-25T08:19:39.077Z,2.78
2022-10-25T08:22:07.341Z,2.63
2022-10-25T08:24:38.717Z,3.00
2022-10-25T08:27:06.990Z,2.38
2022-10-25T08:29:35.689Z,2.03
2022-10-25T08:32:03.929Z,2.15
2022-10-25T08:34:33.283Z,2.28
2022-10-25T08:37:01.774Z,2.20
2022-10-25T08:39:30.043Z,2.20
2022-10-25T08:42:02.505Z,2.42
2022-10-25T08:44:43.995Z,2.33
2022-10-25T08:47:19.317Z,2.30
2022-10-25T08:49:56.122Z,2.40
2022-10-25T08:52:30.543Z,2.83
2022-10-25T08:55:04.773Z,2.20
2022-10-25T08:57:45.157Z,2.65
2022-10-25T09:00:19.532Z,2.92
2022-10-25T09:02:53.271Z,2.30
2022-10-25T09:05:39.794Z,2.08
2022-10-25T09:08:28.130Z,2.67
2022-10-25T09:11:06.347Z,2.40
2022-10-25T09:13:46.197Z,2.40
2022-10-25T09:16:18.249Z,2.30
2022-10-25T09:18:53.267Z,2.35
2022-10-25T09:21:24.125Z,2.22
2022-10-25T09:23:59.920Z,3.03
2022-10-25T09:26:41.097Z,2.20
2022-10-25T09:29:22.266Z,2.20
2022-10-25T09:31:54.700Z,2.15
2022-10-25T09:34:24.782Z,1.73
2022-10-25T09:36:58.031Z,1.92
2022-10-25T09:39:33.025Z,1.60
2022-10-25T09:42:02.294Z,2.38
2022-10-25T09:44:43.347Z,2.03
2022-10-25T09:47:19.666Z,2.05
2022-10-25T09:49:58.003Z,2.20
2022-10-25T09:52:34.436Z,1.90
2022-10-25T09:55:27.511Z,2.10
2022-10-25T09:57:56.277Z,2.30
2022-10-25T10:00:26.714Z,2.08
2022-10-25T10:02:55.967Z,1.52
2022-10-25T10:05:24.367Z,2.00
2022-10-25T10:07:54.749Z,1.98
2022-10-25T10:10:27.518Z,1.45
2022-10-25T10:13:01.231Z,1.90
2022-10-25T10:15:38.641Z,2.05
2022-10-25T10:18:30.254Z,2.00
2022-10-25T10:21:04.687Z,1.83
2022-10-25T10:23:37.067Z,1.95
2022-10-25T10:26:12.725Z,1.95
2022-10-25T10:28:46.758Z,1.83
2022-10-25T10:31:17.922Z,2.40
2022-10-25T10:33:50.475Z,2.10
2022-10-25T10:36:28.006Z,2.20
2022-10-25T10:39:14.416Z,2.00
2022-10-25T10:42:03.119Z,1.95
2022-10-25T10:44:34.491Z,2.20
2022-10-25T10:47:12.432Z,2.25
2022-10-25T10:49:46.417Z,2.33
2022-10-25T10:52:30.810Z,2.17
2022-10-25T10:55:01.073Z,1.80
2022-10-25T10:57:33.448Z,2.00
2022-10-25T11:00:02.716Z,1.90
2022-10-25T11:02:43.812Z,1.40
2022-10-25T11:05:25.407Z,2.08
2022-10-25T11:07:58.859Z,1.77
2022-10-25T11:10:33.282Z,1.75
2022-10-25T11:13:13.088Z,2.05
2022-10-25T11:16:04.241Z,2.35
2022-10-25T11:18:43.439Z,1.90
2022-10-25T11:21:30.118Z,1.90
2022-10-25T11:24:09.338Z,1.52
2022-10-25T11:26:52.875Z,1.38
2022-10-25T11:29:50.241Z,1.75
2022-10-25T11:32:53.795Z,1.83
2022-10-25T11:35:59.246Z,1.52
2022-10-25T11:38:35.179Z,2.25
2022-10-25T11:41:13.686Z,1.90
2022-10-25T11:44:05.642Z,1.75
2022-10-25T11:46:45.440Z,1.70
2022-10-25T11:49:30.133Z,1.60
2022-10-25T11:52:17.931Z,1.77
2022-10-25T11:54:52.674Z,1.20
2022-10-25T11:57:38.672Z,1.73
2022-10-25T12:00:15.362Z,1.80
2022-10-25T12:03:09.122Z,1.50
2022-10-25T12:05:49.531Z,1.70
2022-10-25T12:08:31.005Z,1.55
2022-10-25T12:11:04.920Z,1.80
2022-10-25T12:13:36.210Z,1.88
2022-10-25T12:16:36.254Z,1.40
2022-10-25T12:19:42.764Z,1.55
2022-10-25T12:22:18.597Z,2.05
2022-10-25T12:24:54.634Z,2.10
2022-10-25T12:27:26.299Z,1.85
2022-10-25T12:29:57.957Z,1.80
2022-10-25T12:32:33.286Z,1.63
2022-10-25T12:35:07.452Z,1.80
2022-10-25T12:37:40.133Z,1.88
2022-10-25T12:40:16.843Z,2.72
2022-10-25T12:42:48.671Z,2.15
2022-10-25T12:45:43.105Z,2.35
2022-10-25T12:48:24.621Z,2.28
2022-10-25T12:51:13.009Z,1.95
2022-10-25T12:54:09.659Z,1.92
2022-10-25T12:56:49.890Z,2.60
2022-10-25T12:59:37.339Z,1.95
2022-10-25T13:02:40.570Z,1.70
2022-10-25T13:05:50.217Z,1.63
2022-10-25T13:08:23.042Z,2.03
2022-10-25T13:10:58.836Z,1.75
2022-10-25T13:13:33.740Z,1.98
2022-10-25T13:16:04.620Z,2.50
2022-10-25T13:18:45.176Z,2.20
2022-10-25T13:21:15.822Z,2.15
2022-10-25T13:24:06.385Z,1.88
2022-10-25T13:27:15.522Z,2.22
2022-10-25T13:30:05.429Z,2.10
2022-10-25T13:32:36.089Z,2.08
2022-10-25T13:35:24.644Z,2.17
2022-10-25T13:37:55.087Z,2.45
2022-10-25T13:40:28.568Z,1.85
2022-10-25T13:43:05.865Z,2.47
2022-10-25T13:45:43.804Z,2.30
2022-10-25T13:48:25.955Z,2.13
2022-10-25T13:50:56.661Z,2.42
2022-10-25T13:53:27.156Z,1.95
2022-10-25T13:56:00.087Z,2.30
2022-10-25T13:58:51.763Z,1.80
2022-10-25T14:01:54.755Z,2.10
2022-10-25T14:04:39.039Z,1.90
2022-10-25T14:07:50.744Z,1.83
2022-10-25T14:10:30.169Z,2.10
2022-10-25T14:13:15.944Z,1.80
2022-10-25T14:15:51.861Z,1.95
2022-10-25T14:18:23.307Z,1.70
2022-10-25T14:20:56.429Z,1.55
2022-10-25T14:23:27.789Z,1.73
2022-10-25T14:25:58.277Z,2.28
2022-10-25T14:28:28.158Z,2.17
2022-10-25T14:30:58.608Z,1.80
2022-10-25T14:33:32.274Z,1.90
2022-10-25T14:36:11.040Z,1.85
2022-10-25T14:38:51.378Z,2.17
2022-10-25T14:41:23.304Z,1.63
2022-10-25T14:43:52.054Z,1.60
2022-10-25T14:46:21.517Z,1.60
2022-10-25T14:48:54.034Z,1.90
2022-10-25T14:51:27.814Z,1.77
2022-10-25T14:53:59.909Z,1.58
2022-10-25T14:56:33.028Z,1.75
2022-10-25T14:59:03.602Z,1.60
2022-10-25T15:01:32.675Z,2.15
2022-10-25T15:04:02.100Z,1.50
2022-10-25T15:06:33.506Z,1.60
2022-10-25T15:09:37.446Z,1.77
2022-10-25T15:12:25.818Z,1.80
2022-10-25T15:14:56.494Z,1.30
2022-10-25T15:17:29.833Z,1.65
2022-10-25T15:20:02.428Z,1.50
2022-10-25T15:22:34.761Z,1.35
2022-10-25T15:25:03.065Z,1.23
2022-10-25T15:27:40.276Z,1.10
2022-10-25T15:30:23.821Z,1.35
2022-10-25T15:32:53.002Z,1.17
2022-10-25T15:35:25.287Z,1.30
2022-10-25T15:37:57.580Z,1.23
2022-10-25T15:40:25.795Z,1.30
2022-10-25T15:42:54.022Z,1.05
2022-10-25T15:45:22.297Z,1.30
2022-10-25T15:47:51.247Z,1.60
2022-10-25T15:50:22.754Z,1.45
2022-10-25T15:52:51.066Z,1.20
2022-10-25T15:55:23.503Z,1.45
2022-10-25T15:57:52.436Z,1.25
2022-10-25T16:00:25.725Z,1.58
2022-10-25T16:02:56.725Z,1.42
2022-10-25T16:05:27.393Z,1.40
2022-10-25T16:07:55.949Z,1.30
2022-10-25T16:10:26.998Z,1.48
2022-10-25T16:12:59.605Z,1.70
2022-10-25T16:15:28.934Z,2.05
2022-10-25T16:17:57.797Z,1.63
2022-10-25T16:20:28.046Z,1.42
2022-10-25T16:22:57.470Z,1.38
2022-10-25T16:25:30.647Z,1.38
2022-10-25T16:28:01.826Z,1.38
2022-10-25T16:30:35.358Z,1.65
2022-10-25T16:33:04.859Z,1.20
2022-10-25T16:35:33.616Z,1.75
2022-10-25T16:38:02.136Z,1.48
2022-10-25T16:40:32.285Z,1.30
2022-10-25T16:43:01.223Z,1.73
2022-10-25T16:45:31.953Z,1.17
2022-10-25T16:48:01.307Z,2.17
2022-10-25T16:50:31.541Z,1.40
2022-10-25T16:53:02.031Z,1.73
2022-10-25T16:55:32.503Z,1.70
2022-10-25T16:58:02.430Z,1.58
2022-10-25T17:00:35.605Z,1.40
2022-10-25T17:03:04.707Z,1.42
2022-10-25T17:05:33.766Z,1.80
2022-10-25T17:08:01.944Z,1.60
2022-10-25T17:10:31.702Z,1.50
2022-10-25T17:13:03.217Z,1.80
2022-10-25T17:15:32.336Z,1.85
2022-10-25T17:18:00.798Z,2.33
2022-10-25T17:20:29.123Z,1.70
2022-10-25T17:22:57.420Z,1.92
2022-10-25T17:25:25.650Z,2.00
2022-10-25T17:27:56.445Z,1.83
2022-10-25T17:30:24.803Z,1.90
2022-10-25T17:32:52.985Z,1.63
2022-10-25T17:35:28.546Z,1.95
2022-10-25T17:37:58.434Z,1.60
2022-10-25T17:40:26.794Z,1.73
2022-10-25T17:42:56.323Z,2.05
2022-10-25T17:45:24.597Z,2.30
2022-10-25T17:47:52.871Z,1.70
2022-10-25T17:50:22.300Z,2.83
2022-10-25T17:52:52.004Z,2.40
2022-10-25T17:55:20.281Z,1.88
2022-10-25T17:57:50.126Z,2.22
2022-10-25T18:00:20.681Z,3.10
2022-10-25T18:02:50.742Z,1.80
2022-10-25T18:05:20.899Z,1.75
2022-10-25T18:07:50.488Z,1.73
2022-10-25T18:10:19.735Z,1.55
2022-10-25T18:12:48.775Z,1.65
2022-10-25T18:15:17.974Z,2.05
2022-10-25T18:17:47.971Z,1.92
2022-10-25T18:20:17.209Z,1.70
2022-10-25T18:22:46.040Z,2.03
2022-10-25T18:25:14.246Z,1.90
2022-10-25T18:27:42.860Z,1.90
2022-10-25T18:30:12.642Z,1.95
2022-10-25T18:32:41.177Z,1.90
2022-10-25T18:35:11.699Z,2.92
2022-10-25T18:37:39.960Z,2.20
2022-10-25T18:40:10.274Z,2.92
2022-10-25T18:42:38.896Z,2.00
2022-10-25T18:45:08.013Z,1.73
2022-10-25T18:47:36.513Z,1.98
2022-10-25T18:50:05.273Z,1.80
2022-10-25T18:52:35.027Z,2.15
2022-10-25T18:55:03.307Z,4.30
2022-10-25T18:57:31.677Z,4.88
2022-10-25T19:00:00.025Z,12.63
2022-10-25T19:02:28.333Z,12.93
2022-10-25T19:04:56.803Z,9.40
2022-10-25T19:07:25.238Z,6.28
2022-10-25T19:09:55.285Z,1.70
2022-10-25T19:12:23.516Z,1.85
2022-10-25T19:14:51.717Z,2.00
2022-10-25T19:17:19.910Z,2.00
2022-10-25T19:19:48.115Z,1.90
2022-10-25T19:22:16.341Z,1.90
2022-10-25T19:24:45.532Z,2.20
2022-10-25T19:27:17.164Z,2.00
2022-10-25T19:29:46.034Z,2.28
2022-10-25T19:32:17.255Z,2.83
2022-10-25T19:34:45.628Z,1.90
2022-10-25T19:37:15.003Z,2.22
2022-10-25T19:39:44.879Z,3.03
2022-10-25T19:42:14.661Z,2.58
2022-10-25T19:44:42.890Z,2.40
2022-10-25T19:47:11.509Z,2.30
2022-10-25T19:49:39.706Z,2.38
2022-10-25T19:52:07.942Z,2.28
2022-10-25T19:54:36.262Z,2.45
2022-10-25T19:57:08.340Z,2.03
2022-10-25T19:59:38.082Z,2.70
2022-10-25T20:02:06.440Z,2.60
2022-10-25T20:04:34.962Z,2.60
2022-10-25T20:07:04.613Z,2.60
2022-10-25T20:09:33.469Z,2.13
2022-10-25T20:12:01.791Z,2.45
2022-10-25T20:14:30.881Z,2.45
2022-10-25T20:17:00.538Z,2.30
2022-10-25T20:19:28.946Z,2.13
2022-10-25T20:21:57.170Z,2.40
2022-10-25T20:24:25.488Z,2.65
2022-10-25T20:26:53.832Z,2.95
2022-10-25T20:29:23.991Z,2.30
2022-10-25T20:31:53.588Z,2.75
2022-10-25T20:34:23.403Z,2.05
2022-10-25T20:36:51.654Z,2.55
2022-10-25T20:39:19.963Z,2.60
2022-10-25T20:41:48.156Z,2.35
2022-10-25T20:44:19.047Z,2.28
2022-10-25T20:46:47.481Z,2.70
2022-10-25T20:49:15.764Z,2.78
2022-10-25T20:51:45.490Z,2.70
2022-10-25T20:54:14.676Z,2.63
2022-10-25T20:56:43.375Z,2.88
2022-10-25T20:59:12.625Z,2.75
2022-10-25T21:01:41.315Z,2.60
2022-10-25T21:04:10.537Z,2.90
2022-10-25T21:06:38.955Z,2.65
2022-10-25T21:09:08.575Z,2.80
2022-10-25T21:11:36.889Z,2.45
2022-10-25T21:14:05.068Z,2.67
2022-10-25T21:16:33.576Z,2.75
2022-10-25T21:19:04.268Z,2.88
2022-10-25T21:21:33.533Z,2.65
2022-10-25T21:24:02.898Z,2.30
2022-10-25T21:26:33.093Z,2.38
2022-10-25T21:29:01.596Z,2.90
2022-10-25T21:31:30.367Z,2.60
2022-10-25T21:34:03.019Z,3.10
2022-10-25T21:36:31.334Z,2.53
2022-10-25T21:39:02.266Z,2.80
2022-10-25T21:41:30.453Z,3.20
2022-10-25T21:44:00.396Z,2.92
2022-10-25T21:46:30.063Z,3.22
2022-10-25T21:48:58.328Z,2.92
2022-10-25T21:51:26.665Z,2.88
2022-10-25T21:53:55.590Z,2.92
2022-10-25T21:56:30.552Z,3.15
2022-10-25T21:59:01.802Z,2.90
2022-10-25T22:01:31.222Z,2.90
2022-10-25T22:04:00.070Z,3.80
2022-10-25T22:06:32.129Z,4.65
2022-10-25T22:09:00.312Z,3.53
2022-10-25T22:11:30.600Z,3.88
2022-10-25T22:14:01.766Z,2.85
2022-10-25T22:16:31.295Z,3.42
2022-10-25T22:19:03.037Z,3.10
2022-10-25T22:21:34.893Z,3.60
2022-10-25T22:24:04.052Z,3.20
2022-10-25T22:26:32.776Z,3.45
2022-10-25T22:29:02.884Z,3.65
2022-10-25T22:31:31.789Z,3.50
2022-10-25T22:34:02.378Z,3.40
2022-10-25T22:36:32.293Z,3.65
2022-10-25T22:39:00.887Z,2.50
2022-10-25T22:41:30.885Z,3.35
2022-10-25T22:43:59.837Z,3.28
2022-10-25T22:46:31.807Z,3.47
2022-10-25T22:49:01.387Z,3.20
2022-10-25T22:51:29.937Z,3.10
2022-10-25T22:53:58.348Z,3.40
2022-10-25T22:56:28.407Z,4.82
2022-10-25T22:59:01.297Z,3.83
2022-10-25T23:01:32.331Z,3.60
2022-10-25T23:04:01.703Z,3.55
2022-10-25T23:06:31.742Z,3.72
2022-10-25T23:09:01.771Z,3.10
2022-10-25T23:11:31.680Z,3.10
2022-10-25T23:14:01.258Z,3.13
2022-10-25T23:16:31.301Z,3.53
2022-10-25T23:18:59.765Z,3.30
2022-10-25T23:21:30.065Z,3.50
2022-10-25T23:23:59.800Z,3.88
2022-10-25T23:26:30.627Z,3.40
2022-10-25T23:29:02.177Z,3.55
2022-10-25T23:31:32.730Z,3.70
2022-10-25T23:34:02.387Z,3.53
2022-10-25T23:36:37.186Z,3.58
2022-10-25T23:39:07.441Z,3.25
2022-10-25T23:41:35.728Z,3.80
2022-10-25T23:44:04.202Z,3.90
2022-10-25T23:46:34.556Z,3.22
2022-10-25T23:49:02.756Z,3.45
2022-10-25T23:51:31.298Z,3.55
2022-10-25T23:53:59.521Z,3.03
2022-10-25T23:56:28.252Z,3.47
2022-10-25T23:58:59.310Z,3.05
